sensor_id;sensor_type;location;lat;lon;timestamp;P1;durP1;ratioP1;P2;durP2;ratioP2
6852;SDS011;3465;42.144;24.722;2022-08-20T00:00:50;11.23;;;6.32;;
6852;SDS011;3465;42.144;24.722;2022-08-20T00:03:24;12.00;;;6.55;;
6852;SDS011;3465;42.144;24.722;2022-08-20T00:06:03;11.25;;;6.32;;
6852;SDS011;3465;42.144;24.722;2022-08-20T00:08:34;14.45;;;6.55;;
6852;SDS011;3465;42.144;24.722;2022-08-20T00:11:00;10.88;;;6.55;;
6852;SDS011;3465;42.144;24.722;2022-08-20T00:13:28;10.98;;;6.85;;
6852;SDS011;3465;42.144;24.722;2022-08-20T00:15:57;12.70;;;6.20;;
6852;SDS011;3465;42.144;24.722;2022-08-20T00:18:24;8.98;;;6.55;;
6852;SDS011;3465;42.144;24.722;2022-08-20T00:20:51;10.02;;;6.60;;
6852;SDS011;3465;42.144;24.722;2022-08-20T00:23:18;9.98;;;6.55;;
6852;SDS011;3465;42.144;24.722;2022-08-20T00:25:44;13.20;;;7.00;;
6852;SDS011;3465;42.144;24.722;2022-08-20T00:28:11;15.82;;;7.20;;
6852;SDS011;3465;42.144;24.722;2022-08-20T00:30:37;10.32;;;6.40;;
6852;SDS011;3465;42.144;24.722;2022-08-20T00:33:08;14.20;;;7.25;;
6852;SDS011;3465;42.144;24.722;2022-08-20T00:35:37;13.98;;;7.20;;
6852;SDS011;3465;42.144;24.722;2022-08-20T00:38:05;13.40;;;6.90;;
6852;SDS011;3465;42.144;24.722;2022-08-20T00:40:43;13.10;;;6.97;;
6852;SDS011;3465;42.144;24.722;2022-08-20T00:45:56;12.80;;;7.00;;
6852;SDS011;3465;42.144;24.722;2022-08-20T00:48:26;10.38;;;7.45;;
6852;SDS011;3465;42.144;24.722;2022-08-20T00:50:58;10.75;;;7.05;;
6852;SDS011;3465;42.144;24.722;2022-08-20T00:53:33;11.32;;;6.95;;
6852;SDS011;3465;42.144;24.722;2022-08-20T00:56:00;13.30;;;7.10;;
6852;SDS011;3465;42.144;24.722;2022-08-20T00:58:26;8.95;;;6.35;;
6852;SDS011;3465;42.144;24.722;2022-08-20T01:00:52;10.02;;;7.10;;
6852;SDS011;3465;42.144;24.722;2022-08-20T01:03:18;11.25;;;6.60;;
6852;SDS011;3465;42.144;24.722;2022-08-20T01:05:45;10.75;;;7.03;;
6852;SDS011;3465;42.144;24.722;2022-08-20T01:08:14;11.65;;;7.15;;
6852;SDS011;3465;42.144;24.722;2022-08-20T01:10:42;10.48;;;7.03;;
6852;SDS011;3465;42.144;24.722;2022-08-20T01:13:12;8.90;;;6.93;;
6852;SDS011;3465;42.144;24.722;2022-08-20T01:15:41;11.00;;;6.95;;
6852;SDS011;3465;42.144;24.722;2022-08-20T01:18:23;10.77;;;7.05;;
6852;SDS011;3465;42.144;24.722;2022-08-20T01:20:56;11.27;;;7.22;;
6852;SDS011;3465;42.144;24.722;2022-08-20T01:26:18;10.80;;;7.43;;
6852;SDS011;3465;42.144;24.722;2022-08-20T01:31:26;9.38;;;7.40;;
6852;SDS011;3465;42.144;24.722;2022-08-20T01:33:55;9.40;;;7.18;;
6852;SDS011;3465;42.144;24.722;2022-08-20T01:37:04;12.00;;;7.75;;
6852;SDS011;3465;42.144;24.722;2022-08-20T01:39:34;12.13;;;8.05;;
6852;SDS011;3465;42.144;24.722;2022-08-20T01:44:32;11.85;;;7.53;;
6852;SDS011;3465;42.144;24.722;2022-08-20T01:47:05;11.65;;;7.88;;
6852;SDS011;3465;42.144;24.722;2022-08-20T01:49:33;11.52;;;7.97;;
6852;SDS011;3465;42.144;24.722;2022-08-20T01:52:01;14.23;;;7.75;;
6852;SDS011;3465;42.144;24.722;2022-08-20T01:54:31;13.60;;;8.88;;
6852;SDS011;3465;42.144;24.722;2022-08-20T01:57:05;13.15;;;8.73;;
6852;SDS011;3465;42.144;24.722;2022-08-20T01:59:37;12.00;;;8.30;;
6852;SDS011;3465;42.144;24.722;2022-08-20T02:02:03;12.85;;;7.78;;
6852;SDS011;3465;42.144;24.722;2022-08-20T02:04:31;11.02;;;8.57;;
6852;SDS011;3465;42.144;24.722;2022-08-20T02:06:58;12.63;;;7.93;;
6852;SDS011;3465;42.144;24.722;2022-08-20T02:09:28;10.93;;;7.90;;
6852;SDS011;3465;42.144;24.722;2022-08-20T02:11:57;11.93;;;7.60;;
6852;SDS011;3465;42.144;24.722;2022-08-20T02:14:23;15.77;;;8.15;;
6852;SDS011;3465;42.144;24.722;2022-08-20T02:16:49;13.23;;;8.27;;
6852;SDS011;3465;42.144;24.722;2022-08-20T02:19:17;10.85;;;7.70;;
6852;SDS011;3465;42.144;24.722;2022-08-20T02:21:50;11.20;;;8.32;;
6852;SDS011;3465;42.144;24.722;2022-08-20T02:24:18;12.23;;;7.93;;
6852;SDS011;3465;42.144;24.722;2022-08-20T02:26:44;10.30;;;7.72;;
6852;SDS011;3465;42.144;24.722;2022-08-20T02:29:11;11.60;;;8.18;;
6852;SDS011;3465;42.144;24.722;2022-08-20T02:31:37;12.85;;;8.10;;
6852;SDS011;3465;42.144;24.722;2022-08-20T02:34:04;14.23;;;8.25;;
6852;SDS011;3465;42.144;24.722;2022-08-20T02:36:33;15.02;;;8.05;;
6852;SDS011;3465;42.144;24.722;2022-08-20T02:39:01;13.32;;;8.23;;
6852;SDS011;3465;42.144;24.722;2022-08-20T02:41:29;15.38;;;8.63;;
6852;SDS011;3465;42.144;24.722;2022-08-20T02:43:57;15.05;;;7.97;;
6852;SDS011;3465;42.144;24.722;2022-08-20T02:46:22;12.48;;;8.13;;
6852;SDS011;3465;42.144;24.722;2022-08-20T02:48:48;14.13;;;7.68;;
6852;SDS011;3465;42.144;24.722;2022-08-20T02:51:13;12.52;;;8.02;;
6852;SDS011;3465;42.144;24.722;2022-08-20T02:53:39;12.32;;;8.35;;
6852;SDS011;3465;42.144;24.722;2022-08-20T02:56:06;10.05;;;8.07;;
6852;SDS011;3465;42.144;24.722;2022-08-20T02:58:33;10.98;;;7.90;;
6852;SDS011;3465;42.144;24.722;2022-08-20T03:00:59;12.18;;;8.32;;
6852;SDS011;3465;42.144;24.722;2022-08-20T03:03:26;11.98;;;8.55;;
6852;SDS011;3465;42.144;24.722;2022-08-20T03:05:53;12.38;;;8.68;;
6852;SDS011;3465;42.144;24.722;2022-08-20T03:08:21;12.70;;;8.75;;
6852;SDS011;3465;42.144;24.722;2022-08-20T03:10:48;20.98;;;8.57;;
6852;SDS011;3465;42.144;24.722;2022-08-20T03:13:15;16.20;;;8.98;;
6852;SDS011;3465;42.144;24.722;2022-08-20T03:15:43;13.48;;;8.15;;
6852;SDS011;3465;42.144;24.722;2022-08-20T03:18:11;16.85;;;8.90;;
6852;SDS011;3465;42.144;24.722;2022-08-20T03:20:37;13.55;;;9.32;;
6852;SDS011;3465;42.144;24.722;2022-08-20T03:23:03;13.02;;;8.73;;
6852;SDS011;3465;42.144;24.722;2022-08-20T03:25:28;14.38;;;9.00;;
6852;SDS011;3465;42.144;24.722;2022-08-20T03:27:55;15.68;;;8.35;;
6852;SDS011;3465;42.144;24.722;2022-08-20T03:30:22;12.68;;;9.18;;
6852;SDS011;3465;42.144;24.722;2022-08-20T03:32:48;17.40;;;8.60;;
6852;SDS011;3465;42.144;24.722;2022-08-20T03:35:15;11.95;;;8.93;;
6852;SDS011;3465;42.144;24.722;2022-08-20T03:37:43;16.35;;;8.70;;
6852;SDS011;3465;42.144;24.722;2022-08-20T03:40:10;10.95;;;8.05;;
6852;SDS011;3465;42.144;24.722;2022-08-20T03:42:38;13.38;;;7.95;;
6852;SDS011;3465;42.144;24.722;2022-08-20T03:45:04;13.50;;;8.52;;
6852;SDS011;3465;42.144;24.722;2022-08-20T03:47:31;16.50;;;9.68;;
6852;SDS011;3465;42.144;24.722;2022-08-20T03:49:57;15.35;;;8.45;;
6852;SDS011;3465;42.144;24.722;2022-08-20T03:52:24;15.70;;;8.32;;
6852;SDS011;3465;42.144;24.722;2022-08-20T03:54:51;14.98;;;8.40;;
6852;SDS011;3465;42.144;24.722;2022-08-20T03:57:16;12.40;;;8.18;;
6852;SDS011;3465;42.144;24.722;2022-08-20T03:59:42;15.18;;;8.15;;
6852;SDS011;3465;42.144;24.722;2022-08-20T04:02:09;11.80;;;8.02;;
6852;SDS011;3465;42.144;24.722;2022-08-20T04:04:35;13.88;;;8.27;;
6852;SDS011;3465;42.144;24.722;2022-08-20T04:07:07;11.60;;;8.10;;
6852;SDS011;3465;42.144;24.722;2022-08-20T04:09:37;11.95;;;8.52;;
6852;SDS011;3465;42.144;24.722;2022-08-20T04:12:04;15.27;;;9.05;;
6852;SDS011;3465;42.144;24.722;2022-08-20T04:14:31;11.18;;;8.32;;
6852;SDS011;3465;42.144;24.722;2022-08-20T04:16:56;11.48;;;8.60;;
6852;SDS011;3465;42.144;24.722;2022-08-20T04:19:22;12.13;;;8.90;;
6852;SDS011;3465;42.144;24.722;2022-08-20T04:21:47;17.10;;;8.60;;
6852;SDS011;3465;42.144;24.722;2022-08-20T04:24:13;17.25;;;8.15;;
6852;SDS011;3465;42.144;24.722;2022-08-20T04:26:40;17.23;;;9.07;;
6852;SDS011;3465;42.144;24.722;2022-08-20T04:29:05;17.80;;;9.00;;
6852;SDS011;3465;42.144;24.722;2022-08-20T04:31:31;18.02;;;9.13;;
6852;SDS011;3465;42.144;24.722;2022-08-20T04:34:00;21.63;;;9.23;;
6852;SDS011;3465;42.144;24.722;2022-08-20T04:36:27;23.65;;;8.93;;
6852;SDS011;3465;42.144;24.722;2022-08-20T04:38:52;23.35;;;10.82;;
6852;SDS011;3465;42.144;24.722;2022-08-20T04:41:18;27.20;;;11.00;;
6852;SDS011;3465;42.144;24.722;2022-08-20T04:43:44;20.73;;;10.13;;
6852;SDS011;3465;42.144;24.722;2022-08-20T04:46:09;16.25;;;9.18;;
6852;SDS011;3465;42.144;24.722;2022-08-20T04:48:35;21.95;;;10.10;;
6852;SDS011;3465;42.144;24.722;2022-08-20T04:51:03;26.30;;;9.68;;
6852;SDS011;3465;42.144;24.722;2022-08-20T04:53:29;22.27;;;9.05;;
6852;SDS011;3465;42.144;24.722;2022-08-20T04:55:56;31.00;;;9.93;;
6852;SDS011;3465;42.144;24.722;2022-08-20T04:58:25;32.25;;;10.40;;
6852;SDS011;3465;42.144;24.722;2022-08-20T05:00:57;38.17;;;10.68;;
6852;SDS011;3465;42.144;24.722;2022-08-20T05:03:28;37.45;;;11.05;;
6852;SDS011;3465;42.144;24.722;2022-08-20T05:05:54;41.83;;;11.55;;
6852;SDS011;3465;42.144;24.722;2022-08-20T05:08:21;38.33;;;10.90;;
6852;SDS011;3465;42.144;24.722;2022-08-20T05:10:48;39.55;;;10.90;;
6852;SDS011;3465;42.144;24.722;2022-08-20T05:13:14;35.72;;;10.73;;
6852;SDS011;3465;42.144;24.722;2022-08-20T05:15:40;31.98;;;10.80;;
6852;SDS011;3465;42.144;24.722;2022-08-20T05:18:06;33.17;;;11.45;;
6852;SDS011;3465;42.144;24.722;2022-08-20T05:20:33;41.25;;;11.05;;
6852;SDS011;3465;42.144;24.722;2022-08-20T05:23:05;29.23;;;10.07;;
6852;SDS011;3465;42.144;24.722;2022-08-20T05:25:43;31.23;;;10.05;;
6852;SDS011;3465;42.144;24.722;2022-08-20T05:28:21;37.60;;;10.57;;
6852;SDS011;3465;42.144;24.722;2022-08-20T05:30:49;19.90;;;9.85;;
6852;SDS011;3465;42.144;24.722;2022-08-20T05:33:16;24.42;;;10.23;;
6852;SDS011;3465;42.144;24.722;2022-08-20T05:35:44;18.70;;;10.00;;
6852;SDS011;3465;42.144;24.722;2022-08-20T05:38:12;19.55;;;10.43;;
6852;SDS011;3465;42.144;24.722;2022-08-20T05:40:40;24.80;;;11.32;;
6852;SDS011;3465;42.144;24.722;2022-08-20T05:43:06;20.38;;;10.20;;
6852;SDS011;3465;42.144;24.722;2022-08-20T05:45:33;24.83;;;10.85;;
6852;SDS011;3465;42.144;24.722;2022-08-20T05:48:07;17.05;;;9.65;;
6852;SDS011;3465;42.144;24.722;2022-08-20T05:50:35;17.45;;;9.15;;
6852;SDS011;3465;42.144;24.722;2022-08-20T05:53:02;21.52;;;10.82;;
6852;SDS011;3465;42.144;24.722;2022-08-20T05:55:29;21.92;;;9.85;;
6852;SDS011;3465;42.144;24.722;2022-08-20T05:57:56;12.68;;;9.38;;
6852;SDS011;3465;42.144;24.722;2022-08-20T06:00:22;16.75;;;8.95;;
6852;SDS011;3465;42.144;24.722;2022-08-20T06:02:48;18.98;;;9.48;;
6852;SDS011;3465;42.144;24.722;2022-08-20T06:05:32;14.35;;;8.63;;
6852;SDS011;3465;42.144;24.722;2022-08-20T06:07:58;15.30;;;8.25;;
6852;SDS011;3465;42.144;24.722;2022-08-20T06:10:24;15.35;;;8.98;;
6852;SDS011;3465;42.144;24.722;2022-08-20T06:12:49;17.65;;;9.90;;
6852;SDS011;3465;42.144;24.722;2022-08-20T06:15:17;14.95;;;9.38;;
6852;SDS011;3465;42.144;24.722;2022-08-20T06:17:43;15.88;;;8.85;;
6852;SDS011;3465;42.144;24.722;2022-08-20T06:20:08;13.07;;;8.38;;
6852;SDS011;3465;42.144;24.722;2022-08-20T06:22:34;12.75;;;8.32;;
6852;SDS011;3465;42.144;24.722;2022-08-20T06:25:00;17.92;;;7.93;;
6852;SDS011;3465;42.144;24.722;2022-08-20T06:27:26;15.25;;;8.50;;
6852;SDS011;3465;42.144;24.722;2022-08-20T06:29:52;12.98;;;9.93;;
6852;SDS011;3465;42.144;24.722;2022-08-20T06:32:18;9.73;;;7.78;;
6852;SDS011;3465;42.144;24.722;2022-08-20T06:34:46;15.60;;;8.50;;
6852;SDS011;3465;42.144;24.722;2022-08-20T06:37:15;10.32;;;7.57;;
6852;SDS011;3465;42.144;24.722;2022-08-20T06:39:45;18.33;;;7.97;;
6852;SDS011;3465;42.144;24.722;2022-08-20T06:42:11;11.40;;;7.50;;
6852;SDS011;3465;42.144;24.722;2022-08-20T06:44:37;13.05;;;8.63;;
6852;SDS011;3465;42.144;24.722;2022-08-20T06:47:03;13.02;;;7.80;;
6852;SDS011;3465;42.144;24.722;2022-08-20T06:49:30;14.65;;;7.80;;
6852;SDS011;3465;42.144;24.722;2022-08-20T06:51:55;12.65;;;7.63;;
6852;SDS011;3465;42.144;24.722;2022-08-20T06:54:21;14.75;;;7.80;;
6852;SDS011;3465;42.144;24.722;2022-08-20T06:56:47;16.90;;;7.82;;
6852;SDS011;3465;42.144;24.722;2022-08-20T06:59:13;14.57;;;7.65;;
6852;SDS011;3465;42.144;24.722;2022-08-20T07:01:38;16.30;;;8.07;;
6852;SDS011;3465;42.144;24.722;2022-08-20T07:04:03;10.98;;;7.53;;
6852;SDS011;3465;42.144;24.722;2022-08-20T07:06:29;10.55;;;7.28;;
6852;SDS011;3465;42.144;24.722;2022-08-20T07:08:55;14.82;;;8.13;;
6852;SDS011;3465;42.144;24.722;2022-08-20T07:11:21;13.15;;;7.97;;
6852;SDS011;3465;42.144;24.722;2022-08-20T07:13:47;12.38;;;7.47;;
6852;SDS011;3465;42.144;24.722;2022-08-20T07:16:13;13.98;;;8.27;;
6852;SDS011;3465;42.144;24.722;2022-08-20T07:18:39;9.98;;;7.30;;
6852;SDS011;3465;42.144;24.722;2022-08-20T07:21:05;13.85;;;8.00;;
6852;SDS011;3465;42.144;24.722;2022-08-20T07:23:30;13.85;;;7.57;;
6852;SDS011;3465;42.144;24.722;2022-08-20T07:25:56;13.38;;;7.57;;
6852;SDS011;3465;42.144;24.722;2022-08-20T07:28:23;15.68;;;7.75;;
6852;SDS011;3465;42.144;24.722;2022-08-20T07:30:50;14.70;;;7.50;;
6852;SDS011;3465;42.144;24.722;2022-08-20T07:33:35;11.88;;;7.65;;
6852;SDS011;3465;42.144;24.722;2022-08-20T07:36:04;13.13;;;8.60;;
6852;SDS011;3465;42.144;24.722;2022-08-20T07:38:31;11.65;;;8.10;;
6852;SDS011;3465;42.144;24.722;2022-08-20T07:40:59;14.02;;;8.27;;
6852;SDS011;3465;42.144;24.722;2022-08-20T07:43:30;15.63;;;7.82;;
6852;SDS011;3465;42.144;24.722;2022-08-20T07:45:57;13.20;;;7.55;;
6852;SDS011;3465;42.144;24.722;2022-08-20T07:48:26;11.15;;;8.52;;
6852;SDS011;3465;42.144;24.722;2022-08-20T07:50:53;13.52;;;9.02;;
6852;SDS011;3465;42.144;24.722;2022-08-20T07:53:20;12.88;;;8.55;;
6852;SDS011;3465;42.144;24.722;2022-08-20T07:55:45;18.45;;;8.65;;
6852;SDS011;3465;42.144;24.722;2022-08-20T07:58:12;10.40;;;7.50;;
6852;SDS011;3465;42.144;24.722;2022-08-20T08:00:41;16.58;;;7.70;;
6852;SDS011;3465;42.144;24.722;2022-08-20T08:03:09;11.25;;;7.75;;
6852;SDS011;3465;42.144;24.722;2022-08-20T08:05:39;14.60;;;8.38;;
6852;SDS011;3465;42.144;24.722;2022-08-20T08:08:08;14.88;;;7.75;;
6852;SDS011;3465;42.144;24.722;2022-08-20T08:10:37;11.30;;;7.63;;
6852;SDS011;3465;42.144;24.722;2022-08-20T08:13:06;13.55;;;8.52;;
6852;SDS011;3465;42.144;24.722;2022-08-20T08:15:36;12.75;;;7.47;;
6852;SDS011;3465;42.144;24.722;2022-08-20T08:18:08;12.07;;;7.78;;
6852;SDS011;3465;42.144;24.722;2022-08-20T08:20:38;13.07;;;7.43;;
6852;SDS011;3465;42.144;24.722;2022-08-20T08:23:06;11.00;;;7.28;;
6852;SDS011;3465;42.144;24.722;2022-08-20T08:25:36;11.40;;;7.30;;
6852;SDS011;3465;42.144;24.722;2022-08-20T08:28:03;9.77;;;7.22;;
6852;SDS011;3465;42.144;24.722;2022-08-20T08:30:29;11.20;;;7.28;;
6852;SDS011;3465;42.144;24.722;2022-08-20T08:32:58;14.23;;;7.03;;
6852;SDS011;3465;42.144;24.722;2022-08-20T08:35:42;11.48;;;6.90;;
6852;SDS011;3465;42.144;24.722;2022-08-20T08:38:10;7.85;;;6.78;;
6852;SDS011;3465;42.144;24.722;2022-08-20T08:40:36;15.38;;;7.35;;
6852;SDS011;3465;42.144;24.722;2022-08-20T08:43:02;8.13;;;6.78;;
6852;SDS011;3465;42.144;24.722;2022-08-20T08:45:49;12.25;;;7.50;;
6852;SDS011;3465;42.144;24.722;2022-08-20T08:48:28;10.00;;;6.88;;
6852;SDS011;3465;42.144;24.722;2022-08-20T08:50:56;13.88;;;7.40;;
6852;SDS011;3465;42.144;24.722;2022-08-20T08:53:24;13.43;;;6.88;;
6852;SDS011;3465;42.144;24.722;2022-08-20T08:55:54;12.38;;;6.75;;
6852;SDS011;3465;42.144;24.722;2022-08-20T08:58:19;12.20;;;6.68;;
6852;SDS011;3465;42.144;24.722;2022-08-20T09:00:45;13.25;;;6.97;;
6852;SDS011;3465;42.144;24.722;2022-08-20T09:03:14;14.13;;;6.95;;
6852;SDS011;3465;42.144;24.722;2022-08-20T09:05:47;9.35;;;7.15;;
6852;SDS011;3465;42.144;24.722;2022-08-20T09:08:17;13.05;;;7.03;;
6852;SDS011;3465;42.144;24.722;2022-08-20T09:10:48;10.65;;;6.20;;
6852;SDS011;3465;42.144;24.722;2022-08-20T09:13:13;10.85;;;7.00;;
6852;SDS011;3465;42.144;24.722;2022-08-20T09:15:39;8.73;;;6.93;;
6852;SDS011;3465;42.144;24.722;2022-08-20T09:18:04;12.07;;;6.50;;
6852;SDS011;3465;42.144;24.722;2022-08-20T09:20:30;12.90;;;6.88;;
6852;SDS011;3465;42.144;24.722;2022-08-20T09:22:55;12.07;;;6.70;;
6852;SDS011;3465;42.144;24.722;2022-08-20T09:25:21;12.90;;;6.53;;
6852;SDS011;3465;42.144;24.722;2022-08-20T09:27:47;9.82;;;6.28;;
6852;SDS011;3465;42.144;24.722;2022-08-20T09:30:13;15.70;;;6.50;;
6852;SDS011;3465;42.144;24.722;2022-08-20T09:32:39;7.47;;;5.90;;
6852;SDS011;3465;42.144;24.722;2022-08-20T09:35:05;10.85;;;6.75;;
6852;SDS011;3465;42.144;24.722;2022-08-20T09:37:33;8.35;;;6.82;;
6852;SDS011;3465;42.144;24.722;2022-08-20T09:39:58;11.25;;;7.07;;
6852;SDS011;3465;42.144;24.722;2022-08-20T09:42:29;14.25;;;7.00;;
6852;SDS011;3465;42.144;24.722;2022-08-20T09:44:58;11.00;;;6.70;;
6852;SDS011;3465;42.144;24.722;2022-08-20T09:47:24;14.50;;;6.38;;
6852;SDS011;3465;42.144;24.722;2022-08-20T09:49:51;8.18;;;6.13;;
6852;SDS011;3465;42.144;24.722;2022-08-20T09:52:36;7.75;;;6.30;;
6852;SDS011;3465;42.144;24.722;2022-08-20T09:55:10;12.73;;;6.47;;
6852;SDS011;3465;42.144;24.722;2022-08-20T09:57:42;13.82;;;6.30;;
6852;SDS011;3465;42.144;24.722;2022-08-20T10:00:08;10.32;;;6.30;;
6852;SDS011;3465;42.144;24.722;2022-08-20T10:02:36;12.05;;;6.18;;
6852;SDS011;3465;42.144;24.722;2022-08-20T10:05:01;9.10;;;6.40;;
6852;SDS011;3465;42.144;24.722;2022-08-20T10:07:27;14.70;;;7.32;;
6852;SDS011;3465;42.144;24.722;2022-08-20T10:09:53;10.10;;;6.18;;
6852;SDS011;3465;42.144;24.722;2022-08-20T10:12:18;10.10;;;6.25;;
6852;SDS011;3465;42.144;24.722;2022-08-20T10:14:44;9.48;;;6.47;;
6852;SDS011;3465;42.144;24.722;2022-08-20T10:17:09;10.82;;;6.00;;
6852;SDS011;3465;42.144;24.722;2022-08-20T10:19:35;9.40;;;6.10;;
6852;SDS011;3465;42.144;24.722;2022-08-20T10:22:00;7.47;;;5.65;;
6852;SDS011;3465;42.144;24.722;2022-08-20T10:24:26;9.77;;;6.20;;
6852;SDS011;3465;42.144;24.722;2022-08-20T10:26:58;9.93;;;5.97;;
6852;SDS011;3465;42.144;24.722;2022-08-20T10:29:25;10.52;;;7.00;;
6852;SDS011;3465;42.144;24.722;2022-08-20T10:31:52;13.27;;;6.93;;
6852;SDS011;3465;42.144;24.722;2022-08-20T10:34:19;8.15;;;6.30;;
6852;SDS011;3465;42.144;24.722;2022-08-20T10:36:44;9.75;;;6.72;;
6852;SDS011;3465;42.144;24.722;2022-08-20T10:39:10;8.60;;;6.28;;
6852;SDS011;3465;42.144;24.722;2022-08-20T10:41:36;9.02;;;6.70;;
6852;SDS011;3465;42.144;24.722;2022-08-20T10:44:02;16.35;;;6.60;;
6852;SDS011;3465;42.144;24.722;2022-08-20T10:46:28;14.98;;;6.57;;
6852;SDS011;3465;42.144;24.722;2022-08-20T10:48:54;10.15;;;6.88;;
6852;SDS011;3465;42.144;24.722;2022-08-20T10:51:19;11.07;;;6.40;;
6852;SDS011;3465;42.144;24.722;2022-08-20T10:53:44;7.70;;;6.10;;
6852;SDS011;3465;42.144;24.722;2022-08-20T10:56:10;9.55;;;6.07;;
6852;SDS011;3465;42.144;24.722;2022-08-20T10:58:35;8.98;;;6.07;;
6852;SDS011;3465;42.144;24.722;2022-08-20T11:01:01;10.35;;;6.10;;
6852;SDS011;3465;42.144;24.722;2022-08-20T11:03:26;9.32;;;5.90;;
6852;SDS011;3465;42.144;24.722;2022-08-20T11:05:52;10.00;;;5.70;;
6852;SDS011;3465;42.144;24.722;2022-08-20T11:08:17;8.85;;;5.45;;
6852;SDS011;3465;42.144;24.722;2022-08-20T11:10:43;10.55;;;5.53;;
6852;SDS011;3465;42.144;24.722;2022-08-20T11:13:08;12.40;;;5.00;;
6852;SDS011;3465;42.144;24.722;2022-08-20T11:15:36;11.25;;;5.13;;
6852;SDS011;3465;42.144;24.722;2022-08-20T11:18:05;9.52;;;4.95;;
6852;SDS011;3465;42.144;24.722;2022-08-20T11:20:31;9.68;;;4.78;;
6852;SDS011;3465;42.144;24.722;2022-08-20T11:22:57;6.25;;;5.00;;
6852;SDS011;3465;42.144;24.722;2022-08-20T11:25:22;6.60;;;4.95;;
6852;SDS011;3465;42.144;24.722;2022-08-20T11:27:49;6.85;;;4.95;;
6852;SDS011;3465;42.144;24.722;2022-08-20T11:30:23;7.93;;;4.80;;
6852;SDS011;3465;42.144;24.722;2022-08-20T11:32:57;11.00;;;5.57;;
6852;SDS011;3465;42.144;24.722;2022-08-20T11:35:24;7.75;;;4.90;;
6852;SDS011;3465;42.144;24.722;2022-08-20T11:37:55;6.45;;;5.05;;
6852;SDS011;3465;42.144;24.722;2022-08-20T11:40:21;12.80;;;5.28;;
6852;SDS011;3465;42.144;24.722;2022-08-20T11:42:47;7.28;;;4.63;;
6852;SDS011;3465;42.144;24.722;2022-08-20T11:45:13;6.38;;;4.75;;
6852;SDS011;3465;42.144;24.722;2022-08-20T11:47:39;7.82;;;5.05;;
6852;SDS011;3465;42.144;24.722;2022-08-20T11:52:32;7.78;;;4.90;;
6852;SDS011;3465;42.144;24.722;2022-08-20T11:54:58;8.38;;;5.00;;
6852;SDS011;3465;42.144;24.722;2022-08-20T11:57:30;7.43;;;5.40;;
6852;SDS011;3465;42.144;24.722;2022-08-20T11:59:58;11.88;;;5.22;;
6852;SDS011;3465;42.144;24.722;2022-08-20T12:02:28;7.10;;;4.75;;
6852;SDS011;3465;42.144;24.722;2022-08-20T12:04:54;8.95;;;5.50;;
6852;SDS011;3465;42.144;24.722;2022-08-20T12:07:21;11.05;;;5.40;;
6852;SDS011;3465;42.144;24.722;2022-08-20T12:09:48;10.63;;;5.20;;
6852;SDS011;3465;42.144;24.722;2022-08-20T12:12:14;10.13;;;5.18;;
6852;SDS011;3465;42.144;24.722;2022-08-20T12:14:40;7.88;;;6.03;;
6852;SDS011;3465;42.144;24.722;2022-08-20T12:17:07;7.90;;;5.20;;
6852;SDS011;3465;42.144;24.722;2022-08-20T12:19:37;8.82;;;5.03;;
6852;SDS011;3465;42.144;24.722;2022-08-20T12:22:03;7.07;;;4.97;;
6852;SDS011;3465;42.144;24.722;2022-08-20T12:24:29;9.50;;;5.53;;
6852;SDS011;3465;42.144;24.722;2022-08-20T12:26:54;11.38;;;5.03;;
6852;SDS011;3465;42.144;24.722;2022-08-20T12:29:20;8.68;;;5.45;;
6852;SDS011;3465;42.144;24.722;2022-08-20T12:31:45;5.82;;;5.10;;
6852;SDS011;3465;42.144;24.722;2022-08-20T12:34:11;11.77;;;5.07;;
6852;SDS011;3465;42.144;24.722;2022-08-20T12:36:36;16.42;;;4.97;;
6852;SDS011;3465;42.144;24.722;2022-08-20T12:39:04;5.35;;;4.60;;
6852;SDS011;3465;42.144;24.722;2022-08-20T12:41:29;13.27;;;5.70;;
6852;SDS011;3465;42.144;24.722;2022-08-20T12:43:54;8.48;;;4.70;;
6852;SDS011;3465;42.144;24.722;2022-08-20T12:46:20;11.15;;;5.10;;
6852;SDS011;3465;42.144;24.722;2022-08-20T12:48:45;6.60;;;4.68;;
6852;SDS011;3465;42.144;24.722;2022-08-20T12:51:11;7.78;;;4.57;;
6852;SDS011;3465;42.144;24.722;2022-08-20T12:53:36;6.85;;;4.63;;
6852;SDS011;3465;42.144;24.722;2022-08-20T12:56:02;10.23;;;4.47;;
6852;SDS011;3465;42.144;24.722;2022-08-20T12:58:29;10.10;;;5.28;;
6852;SDS011;3465;42.144;24.722;2022-08-20T13:00:54;7.35;;;5.05;;
6852;SDS011;3465;42.144;24.722;2022-08-20T13:03:20;6.53;;;4.90;;
6852;SDS011;3465;42.144;24.722;2022-08-20T13:05:45;10.32;;;5.05;;
6852;SDS011;3465;42.144;24.722;2022-08-20T13:08:11;8.93;;;4.95;;
6852;SDS011;3465;42.144;24.722;2022-08-20T13:10:38;6.70;;;4.75;;
6852;SDS011;3465;42.144;24.722;2022-08-20T13:13:13;7.35;;;4.82;;
6852;SDS011;3465;42.144;24.722;2022-08-20T13:15:39;9.25;;;5.15;;
6852;SDS011;3465;42.144;24.722;2022-08-20T13:18:05;11.35;;;4.32;;
6852;SDS011;3465;42.144;24.722;2022-08-20T13:20:31;7.15;;;4.85;;
6852;SDS011;3465;42.144;24.722;2022-08-20T13:22:57;7.72;;;5.07;;
6852;SDS011;3465;42.144;24.722;2022-08-20T13:25:22;7.00;;;5.00;;
6852;SDS011;3465;42.144;24.722;2022-08-20T13:27:53;7.00;;;4.93;;
6852;SDS011;3465;42.144;24.722;2022-08-20T13:30:21;5.57;;;4.78;;
6852;SDS011;3465;42.144;24.722;2022-08-20T13:32:46;7.38;;;5.10;;
6852;SDS011;3465;42.144;24.722;2022-08-20T13:35:12;6.53;;;4.60;;
6852;SDS011;3465;42.144;24.722;2022-08-20T13:37:41;6.30;;;4.50;;
6852;SDS011;3465;42.144;24.722;2022-08-20T13:40:07;9.73;;;4.38;;
6852;SDS011;3465;42.144;24.722;2022-08-20T13:42:33;9.73;;;4.70;;
6852;SDS011;3465;42.144;24.722;2022-08-20T13:44:59;5.45;;;4.32;;
6852;SDS011;3465;42.144;24.722;2022-08-20T13:47:26;6.68;;;4.93;;
6852;SDS011;3465;42.144;24.722;2022-08-20T13:49:57;9.25;;;5.10;;
6852;SDS011;3465;42.144;24.722;2022-08-20T13:52:24;8.45;;;4.60;;
6852;SDS011;3465;42.144;24.722;2022-08-20T13:54:51;9.43;;;4.57;;
6852;SDS011;3465;42.144;24.722;2022-08-20T13:57:17;9.25;;;5.30;;
6852;SDS011;3465;42.144;24.722;2022-08-20T13:59:48;9.60;;;5.03;;
6852;SDS011;3465;42.144;24.722;2022-08-20T14:02:15;4.90;;;4.18;;
6852;SDS011;3465;42.144;24.722;2022-08-20T14:04:41;7.18;;;4.82;;
6852;SDS011;3465;42.144;24.722;2022-08-20T14:07:17;6.07;;;4.63;;
6852;SDS011;3465;42.144;24.722;2022-08-20T14:09:51;8.48;;;4.97;;
6852;SDS011;3465;42.144;24.722;2022-08-20T14:12:25;12.02;;;5.10;;
6852;SDS011;3465;42.144;24.722;2022-08-20T14:14:51;10.15;;;5.07;;
6852;SDS011;3465;42.144;24.722;2022-08-20T14:19:53;10.35;;;5.00;;
6852;SDS011;3465;42.144;24.722;2022-08-20T14:22:21;11.02;;;5.30;;
6852;SDS011;3465;42.144;24.722;2022-08-20T14:24:47;10.45;;;4.65;;
6852;SDS011;3465;42.144;24.722;2022-08-20T14:27:13;7.15;;;4.97;;
6852;SDS011;3465;42.144;24.722;2022-08-20T14:29:41;5.95;;;4.65;;
6852;SDS011;3465;42.144;24.722;2022-08-20T14:32:08;7.20;;;5.05;;
6852;SDS011;3465;42.144;24.722;2022-08-20T14:34:34;6.10;;;4.88;;
6852;SDS011;3465;42.144;24.722;2022-08-20T14:39:37;8.55;;;4.90;;
6852;SDS011;3465;42.144;24.722;2022-08-20T14:42:05;7.68;;;4.65;;
6852;SDS011;3465;42.144;24.722;2022-08-20T14:44:31;7.50;;;4.57;;
6852;SDS011;3465;42.144;24.722;2022-08-20T14:46:56;7.55;;;4.70;;
6852;SDS011;3465;42.144;24.722;2022-08-20T14:49:22;6.28;;;4.78;;
6852;SDS011;3465;42.144;24.722;2022-08-20T14:51:48;7.28;;;4.45;;
6852;SDS011;3465;42.144;24.722;2022-08-20T14:54:13;9.02;;;4.80;;
6852;SDS011;3465;42.144;24.722;2022-08-20T14:56:38;6.97;;;4.50;;
6852;SDS011;3465;42.144;24.722;2022-08-20T14:59:04;7.22;;;4.65;;
6852;SDS011;3465;42.144;24.722;2022-08-20T15:01:29;9.85;;;5.00;;
6852;SDS011;3465;42.144;24.722;2022-08-20T15:03:55;7.72;;;4.40;;
6852;SDS011;3465;42.144;24.722;2022-08-20T15:06:20;8.32;;;4.85;;
6852;SDS011;3465;42.144;24.722;2022-08-20T15:08:46;5.97;;;4.35;;
6852;SDS011;3465;42.144;24.722;2022-08-20T15:11:11;7.32;;;4.50;;